Roxbury, Massachusetts
Current Conditions -  °F | °C
As of 10:54 AM on Saturday 20 Dec 2014 (Local Time) from KBOS Reporting Station
Overcast Overcast  
Wind Chill: -5°   Ceiling: 2600
Heat Index: -1°   Visibility: 10mi
Dew Point: -6°   Wind: 9mph
Humidity: 69%   Direction: 350°N
Pressure: 30.28"   Gusts: NA
Location:  42.3237°N, 71.0855°W
Report Text: KBOS 201554Z 35008KT 10SM BKN026 OVC034 M01/M06 A3028 RMK AO2 SLP253 T10061056
Loading
Personal Weather Stations






























Interactive Weather Map New forecast layout! Learn more

10-Day Weather Forecast

Advertisements
Track Severe Weather on mobile